createdAt,value
2019-05-03T06:00:29.357Z,21.50
2019-05-03T06:01:29.322Z,14.40
2019-05-03T06:02:29.307Z,13.70
2019-05-03T06:03:29.319Z,14.50
2019-05-03T06:04:29.288Z,14.60
2019-05-03T06:05:29.296Z,14.20
2019-05-03T06:06:29.259Z,14.00
2019-05-03T06:07:29.252Z,14.10
2019-05-03T06:08:29.267Z,14.80
2019-05-03T06:09:29.246Z,14.30
2019-05-03T06:10:29.267Z,13.00
2019-05-03T06:11:29.217Z,13.80
2019-05-03T06:12:29.203Z,13.70
2019-05-03T06:13:29.195Z,14.00
2019-05-03T06:14:29.220Z,13.40
2019-05-03T06:15:29.170Z,12.80
2019-05-03T06:16:29.184Z,12.70
2019-05-03T06:17:29.145Z,12.00
2019-05-03T06:18:29.134Z,12.60
2019-05-03T06:19:29.145Z,12.10
2019-05-03T06:20:29.112Z,11.00
2019-05-03T06:21:29.132Z,10.80
2019-05-03T06:22:29.115Z,10.50
2019-05-03T06:23:29.077Z,10.40
2019-05-03T06:24:29.084Z,9.60
2019-05-03T06:25:29.084Z,10.20
2019-05-03T06:26:29.075Z,10.30
2019-05-03T06:27:29.061Z,10.00
2019-05-03T06:28:29.026Z,10.70
2019-05-03T06:29:29.013Z,8.90
2019-05-03T06:30:29.007Z,8.90
2019-05-03T06:31:28.993Z,9.40
2019-05-03T06:32:29.005Z,9.40
2019-05-03T06:33:28.978Z,8.70
2019-05-03T06:34:28.960Z,9.10
2019-05-03T06:35:28.950Z,8.30
2019-05-03T06:36:28.945Z,8.50
2019-05-03T06:37:28.953Z,8.70
2019-05-03T06:38:28.945Z,8.60
2019-05-03T06:39:28.904Z,8.60
2019-05-03T06:40:28.898Z,8.90
2019-05-03T06:41:28.896Z,8.30
2019-05-03T06:42:28.911Z,8.50
2019-05-03T06:43:28.871Z,8.70
2019-05-03T06:44:28.857Z,8.70
2019-05-03T06:45:28.848Z,8.60
2019-05-03T06:46:30.271Z,7.90
2019-05-03T06:47:28.852Z,9.00
2019-05-03T06:48:31.991Z,8.80
2019-05-03T06:49:28.805Z,9.10
2019-05-03T06:50:29.062Z,8.80
2019-05-03T06:51:28.781Z,9.60
2019-05-03T06:52:29.435Z,9.00
2019-05-03T06:53:28.790Z,8.80
2019-05-03T06:54:30.085Z,9.30
2019-05-03T06:55:28.747Z,8.70
2019-05-03T06:56:29.218Z,8.70
2019-05-03T06:57:28.716Z,8.60
2019-05-03T06:58:33.492Z,9.50
2019-05-03T06:59:28.695Z,9.10
2019-05-03T07:00:28.689Z,9.20
2019-05-03T07:01:28.681Z,9.90
2019-05-03T07:02:28.793Z,9.20
2019-05-03T07:03:28.692Z,9.00
2019-05-03T07:04:28.652Z,8.80
2019-05-03T07:05:28.633Z,8.80
2019-05-03T07:06:37.484Z,8.70
2019-05-03T07:07:29.611Z,9.10
2019-05-03T07:08:28.657Z,9.60
2019-05-03T07:09:28.588Z,8.80
2019-05-03T07:10:28.581Z,9.10
2019-05-03T07:11:28.578Z,9.40
2019-05-03T07:12:28.557Z,9.30
2019-05-03T07:13:28.576Z,8.90
2019-05-03T07:14:28.538Z,8.80
2019-05-03T07:15:28.548Z,8.70
2019-05-03T07:16:28.536Z,9.50
2019-05-03T07:17:28.506Z,9.50
2019-05-03T07:18:28.498Z,9.50
2019-05-03T07:19:28.539Z,9.10
2019-05-03T07:20:28.477Z,9.10
2019-05-03T07:21:28.461Z,8.80
2019-05-03T07:22:28.448Z,8.60
2019-05-03T07:23:28.451Z,8.50
2019-05-03T07:24:28.466Z,8.70
2019-05-03T07:25:28.440Z,8.70
2019-05-03T07:26:28.406Z,8.90
2019-05-03T07:27:28.402Z,9.10
2019-05-03T07:28:28.387Z,9.30
2019-05-03T07:29:28.403Z,8.60
2019-05-03T07:30:28.386Z,8.50
2019-05-03T07:31:28.381Z,9.20
2019-05-03T07:32:29.177Z,9.00
2019-05-03T07:33:28.333Z,8.70
2019-05-03T07:34:28.325Z,8.40
2019-05-03T07:35:28.340Z,7.80
2019-05-03T07:36:28.515Z,8.40
2019-05-03T07:37:28.294Z,8.00
2019-05-03T07:38:28.278Z,7.70
2019-05-03T07:39:28.280Z,7.60
2019-05-03T07:40:28.255Z,8.20
2019-05-03T07:41:28.299Z,7.90
2019-05-03T07:42:28.246Z,7.50
2019-05-03T07:43:28.234Z,8.40
2019-05-03T07:44:28.223Z,7.50
2019-05-03T07:45:28.219Z,6.90
2019-05-03T07:46:28.219Z,6.40
2019-05-03T07:47:28.216Z,6.90
2019-05-03T07:48:28.181Z,7.30
2019-05-03T07:49:28.165Z,7.00
2019-05-03T07:50:28.159Z,6.60
2019-05-03T07:51:28.159Z,6.70
2019-05-03T07:52:28.193Z,6.20
2019-05-03T07:53:28.155Z,7.00
2019-05-03T07:54:28.123Z,5.80
2019-05-03T07:55:28.108Z,6.30
2019-05-03T07:56:28.088Z,5.80
2019-05-03T07:57:28.103Z,5.40
2019-05-03T07:58:28.092Z,5.90
2019-05-03T07:59:28.055Z,5.10
2019-05-03T08:00:28.083Z,5.40
2019-05-03T08:01:28.049Z,5.80
2019-05-03T08:02:28.048Z,5.80
2019-05-03T08:03:28.017Z,6.10
2019-05-03T08:04:28.008Z,5.80
2019-05-03T08:05:28.036Z,6.40
2019-05-03T08:06:27.985Z,5.60
2019-05-03T08:07:28.002Z,5.70
2019-05-03T08:08:27.959Z,6.00
2019-05-03T08:09:27.997Z,6.30
2019-05-03T08:10:27.937Z,6.80
2019-05-03T08:11:27.936Z,6.20
2019-05-03T08:12:27.950Z,6.50
2019-05-03T08:13:27.934Z,5.90
2019-05-03T08:14:27.898Z,6.50
2019-05-03T08:15:27.890Z,6.60
2019-05-03T08:16:27.942Z,6.40
2019-05-03T08:17:27.906Z,6.30
2019-05-03T08:18:27.875Z,6.70
2019-05-03T08:19:27.856Z,6.10
2019-05-03T08:20:27.846Z,5.60
2019-05-03T08:21:27.856Z,5.50
2019-05-03T08:22:27.841Z,5.70
2019-05-03T08:23:30.351Z,6.30
2019-05-03T08:24:27.800Z,5.70
2019-05-03T08:25:27.787Z,6.10
2019-05-03T08:26:27.779Z,5.50
2019-05-03T08:27:27.832Z,5.40
2019-05-03T08:28:27.825Z,5.80
2019-05-03T08:29:27.780Z,5.60
2019-05-03T08:30:27.745Z,6.00
2019-05-03T08:31:27.719Z,5.20
2019-05-03T08:32:27.717Z,5.50
2019-05-03T08:33:27.695Z,5.40
2019-05-03T08:34:27.714Z,4.80
2019-05-03T08:35:27.706Z,5.40
2019-05-03T08:36:27.670Z,5.70
2019-05-03T08:37:28.041Z,5.00
2019-05-03T08:38:27.647Z,5.00
2019-05-03T08:39:27.684Z,5.60
2019-05-03T08:40:27.656Z,5.40
2019-05-03T08:41:27.615Z,5.70
2019-05-03T08:42:27.604Z,5.30
2019-05-03T08:43:27.598Z,5.60
2019-05-03T08:44:27.612Z,5.30
2019-05-03T08:45:27.633Z,5.50
2019-05-03T08:46:27.575Z,5.10
2019-05-03T08:47:27.549Z,4.20
2019-05-03T08:48:27.556Z,4.30
2019-05-03T08:49:27.533Z,4.60
2019-05-03T08:50:27.546Z,4.40
2019-05-03T08:51:27.542Z,4.80
2019-05-03T08:52:27.493Z,4.50
2019-05-03T08:53:27.495Z,4.30
2019-05-03T08:54:27.473Z,4.20
2019-05-03T08:55:27.477Z,4.70
2019-05-03T08:56:27.501Z,4.70
2019-05-03T08:57:27.441Z,4.60
2019-05-03T08:58:27.450Z,4.30
2019-05-03T08:59:32.287Z,4.40
2019-05-03T09:00:28.442Z,4.00
2019-05-03T09:01:27.468Z,3.70
2019-05-03T09:02:27.396Z,3.10
2019-05-03T09:03:27.406Z,3.30
2019-05-03T09:04:36.078Z,3.20
2019-05-03T09:05:28.384Z,3.50
2019-05-03T09:06:27.349Z,3.50
2019-05-03T09:07:27.344Z,3.60
2019-05-03T09:08:27.367Z,3.50
2019-05-03T09:09:27.324Z,3.10
2019-05-03T09:10:27.314Z,3.30
2019-05-03T09:11:33.975Z,3.00
2019-05-03T09:12:28.289Z,3.40
2019-05-03T09:13:27.312Z,3.30
2019-05-03T09:14:38.708Z,3.50
2019-05-03T09:15:28.250Z,3.70
2019-05-03T09:16:27.240Z,3.60
2019-05-03T09:17:27.238Z,3.90
2019-05-03T09:18:27.263Z,3.90
2019-05-03T09:19:27.296Z,3.50
2019-05-03T09:20:27.198Z,3.30
2019-05-03T09:21:27.260Z,3.20
2019-05-03T09:22:27.477Z,3.00
2019-05-03T09:23:27.169Z,2.70
2019-05-03T09:24:27.179Z,4.10
2019-05-03T09:25:27.153Z,3.70
2019-05-03T09:26:29.478Z,3.60
2019-05-03T09:27:27.150Z,3.10
2019-05-03T09:28:29.170Z,3.60
2019-05-03T09:29:39.690Z,3.10
2019-05-03T09:30:28.113Z,3.10
2019-05-03T09:31:27.084Z,2.90
2019-05-03T09:32:27.097Z,3.00
2019-05-03T09:33:27.056Z,3.20
2019-05-03T09:34:27.049Z,3.30
2019-05-03T09:35:32.810Z,2.80
2019-05-03T09:36:28.031Z,2.70
2019-05-03T09:37:27.050Z,3.10
2019-05-03T09:38:27.019Z,3.10
2019-05-03T09:39:27.001Z,3.20
2019-05-03T09:40:26.988Z,3.50
2019-05-03T09:41:26.997Z,3.20
2019-05-03T09:42:27.023Z,3.40
2019-05-03T09:43:26.956Z,3.60
2019-05-03T09:44:26.941Z,4.00
2019-05-03T09:45:26.933Z,4.00
2019-05-03T09:46:26.919Z,4.10
2019-05-03T09:47:26.951Z,4.00
2019-05-03T09:48:26.906Z,3.60
2019-05-03T09:49:26.895Z,3.50
2019-05-03T09:50:26.880Z,3.30
2019-05-03T09:51:26.885Z,3.00
2019-05-03T09:52:26.889Z,3.40
2019-05-03T09:53:26.851Z,3.40
2019-05-03T09:54:26.861Z,3.20
2019-05-03T09:55:26.841Z,3.00
2019-05-03T09:56:26.816Z,3.30
2019-05-03T09:57:26.810Z,3.40
2019-05-03T09:58:26.860Z,3.30
2019-05-03T09:59:26.823Z,3.50
2019-05-03T10:00:26.775Z,3.90
2019-05-03T10:01:26.774Z,3.80
2019-05-03T10:02:26.752Z,3.60
2019-05-03T10:03:26.742Z,3.70
2019-05-03T10:04:26.776Z,3.90
2019-05-03T10:05:26.723Z,3.40
2019-05-03T10:06:26.712Z,3.40
2019-05-03T10:07:26.725Z,4.10
2019-05-03T10:08:26.689Z,3.90
2019-05-03T10:09:26.691Z,3.60
2019-05-03T10:10:26.714Z,3.80
2019-05-03T10:11:26.666Z,3.90
2019-05-03T10:12:26.656Z,3.70
2019-05-03T10:13:27.268Z,3.80
2019-05-03T10:14:26.618Z,4.10
2019-05-03T10:15:26.647Z,3.40
2019-05-03T10:16:26.612Z,3.60
2019-05-03T10:17:26.609Z,3.40
2019-05-03T10:18:26.601Z,3.50
2019-05-03T10:19:37.038Z,3.70
2019-05-03T10:20:27.593Z,4.00
2019-05-03T10:21:26.558Z,3.40
2019-05-03T10:22:26.553Z,3.80
2019-05-03T10:23:26.553Z,3.70
2019-05-03T10:24:26.523Z,3.70
2019-05-03T10:25:26.515Z,3.80
2019-05-03T10:26:26.555Z,3.30
2019-05-03T10:27:26.486Z,3.60
2019-05-03T10:28:26.477Z,3.60
2019-05-03T10:29:26.476Z,4.00
2019-05-03T10:30:26.466Z,3.60
2019-05-03T10:31:26.471Z,3.50
2019-05-03T10:32:26.441Z,3.70
2019-05-03T10:33:26.430Z,3.60
2019-05-03T10:34:26.411Z,3.20
2019-05-03T10:35:26.463Z,4.00
2019-05-03T10:36:26.420Z,3.70
2019-05-03T10:37:26.416Z,3.70
2019-05-03T10:38:26.385Z,3.40
2019-05-03T10:39:26.418Z,3.80
2019-05-03T10:40:26.350Z,3.70
2019-05-03T10:41:26.662Z,3.90
2019-05-03T10:42:26.351Z,3.80
2019-05-03T10:43:26.342Z,3.30
2019-05-03T10:44:26.343Z,4.10
2019-05-03T10:45:28.150Z,3.70
2019-05-03T10:46:26.321Z,3.60
2019-05-03T10:47:26.316Z,3.90
2019-05-03T10:48:26.276Z,3.90
2019-05-03T10:49:26.274Z,3.40
2019-05-03T10:50:26.581Z,3.10
2019-05-03T10:51:26.251Z,3.30
2019-05-03T10:52:26.243Z,3.00
2019-05-03T10:53:26.230Z,3.60
2019-05-03T10:54:26.240Z,3.10
2019-05-03T10:55:26.186Z,3.40
2019-05-03T10:56:26.927Z,3.30
2019-05-03T10:57:26.172Z,3.60
2019-05-03T10:58:26.153Z,3.70
2019-05-03T10:59:26.183Z,3.60
2019-05-03T11:00:49.528Z,4.30
2019-05-03T11:01:27.120Z,4.10
2019-05-03T11:02:26.141Z,4.10
2019-05-03T11:03:26.110Z,3.80
2019-05-03T11:04:26.093Z,4.10
2019-05-03T11:05:26.076Z,4.10
2019-05-03T11:06:26.069Z,4.20
2019-05-03T11:07:26.083Z,4.00
2019-05-03T11:08:26.045Z,3.50
2019-05-03T11:09:26.116Z,3.40
2019-05-03T11:10:26.034Z,3.10
2019-05-03T11:11:26.037Z,2.90
2019-05-03T11:12:26.045Z,2.90
2019-05-03T11:13:26.526Z,3.10
2019-05-03T11:14:25.982Z,2.70
2019-05-03T11:15:26.072Z,3.20
2019-05-03T11:16:25.964Z,3.00
2019-05-03T11:17:25.997Z,3.20
2019-05-03T11:18:25.978Z,3.20
2019-05-03T11:19:25.941Z,2.80
2019-05-03T11:20:29.051Z,2.80
2019-05-03T11:21:30.831Z,3.10
2019-05-03T11:22:25.906Z,3.20
2019-05-03T11:23:25.893Z,3.00
2019-05-03T11:24:27.515Z,3.50
2019-05-03T11:25:25.879Z,3.00
2019-05-03T11:26:25.852Z,3.40
2019-05-03T11:27:25.875Z,2.80
2019-05-03T11:28:25.845Z,3.10
2019-05-03T11:29:25.827Z,2.70
2019-05-03T11:30:25.813Z,3.40
2019-05-03T11:31:25.816Z,3.30
2019-05-03T11:32:25.807Z,3.30
2019-05-03T11:33:25.795Z,3.30
2019-05-03T11:34:25.771Z,2.90
2019-05-03T11:35:25.794Z,3.20
2019-05-03T11:36:25.753Z,3.00
2019-05-03T11:37:25.766Z,3.20
2019-05-03T11:38:25.730Z,2.90
2019-05-03T11:39:25.731Z,2.80
2019-05-03T11:40:25.701Z,2.80
2019-05-03T11:41:32.115Z,2.90
2019-05-03T11:42:26.738Z,2.80
2019-05-03T11:43:25.674Z,3.00
2019-05-03T11:44:25.671Z,3.00
2019-05-03T11:45:25.663Z,2.50
2019-05-03T11:46:25.644Z,2.70
2019-05-03T11:47:27.710Z,2.50
2019-05-03T11:48:25.644Z,2.80
2019-05-03T11:49:25.644Z,2.70
2019-05-03T11:50:25.602Z,2.60
2019-05-03T11:51:25.610Z,2.80
2019-05-03T11:52:25.929Z,2.50
2019-05-03T11:53:25.568Z,2.40
2019-05-03T11:54:25.609Z,3.10
2019-05-03T11:55:26.863Z,2.20
2019-05-03T11:56:25.622Z,2.50
2019-05-03T11:57:26.215Z,2.30
2019-05-03T11:58:27.269Z,2.20
2019-05-03T11:59:26.588Z,2.70
2019-05-03T12:00:25.499Z,2.90
2019-05-03T12:01:25.814Z,2.80
2019-05-03T12:02:25.515Z,2.40
2019-05-03T12:03:25.464Z,2.80
2019-05-03T12:04:25.447Z,2.80
2019-05-03T12:05:25.494Z,2.60
2019-05-03T12:06:25.437Z,2.40
2019-05-03T12:07:38.316Z,2.40
2019-05-03T12:08:26.415Z,2.50
2019-05-03T12:09:25.395Z,2.60
2019-05-03T12:10:51.137Z,2.70
2019-05-03T12:11:26.376Z,2.40
2019-05-03T12:12:25.472Z,2.80
2019-05-03T12:13:25.420Z,2.60
2019-05-03T12:14:25.448Z,2.40
2019-05-03T12:15:25.366Z,2.60
2019-05-03T12:17:06.956Z,2.50
2019-05-03T12:17:29.274Z,2.50
2019-05-03T12:18:26.057Z,2.60
2019-05-03T12:19:30.690Z,2.50
2019-05-03T12:20:28.706Z,2.70
2019-05-03T12:21:27.353Z,2.40
2019-05-03T12:22:26.054Z,2.50
2019-05-03T12:23:26.105Z,7.20
2019-05-03T12:24:26.585Z,2.80
2019-05-03T12:25:26.289Z,2.60
2019-05-03T12:26:27.250Z,2.60
2019-05-03T12:27:26.208Z,2.70
2019-05-03T12:28:25.721Z,2.60
2019-05-03T12:29:25.185Z,2.50
2019-05-03T12:30:27.637Z,2.80
2019-05-03T12:31:35.869Z,2.90
2019-05-03T12:32:26.154Z,2.50
2019-05-03T12:33:26.078Z,3.00
2019-05-03T12:34:25.581Z,2.60
2019-05-03T12:35:25.132Z,2.60
2019-05-03T12:36:25.161Z,2.70
2019-05-03T12:37:25.098Z,2.60
2019-05-03T12:38:25.655Z,3.00
2019-05-03T12:39:29.966Z,2.80
2019-05-03T12:40:26.202Z,3.00
2019-05-03T12:41:25.451Z,2.60
2019-05-03T12:42:25.548Z,2.60
2019-05-03T12:43:25.657Z,2.50
2019-05-03T12:44:25.025Z,2.60
2019-05-03T12:45:25.066Z,3.20
2019-05-03T12:46:26.274Z,2.90
2019-05-03T12:47:25.238Z,3.10
2019-05-03T12:48:24.998Z,3.30
2019-05-03T12:49:25.047Z,3.20
2019-05-03T12:50:25.259Z,3.20
2019-05-03T12:51:25.254Z,2.90
2019-05-03T12:52:26.700Z,2.70
2019-05-03T12:53:24.939Z,2.60
2019-05-03T12:54:24.927Z,2.50
2019-05-03T12:55:25.060Z,3.10
2019-05-03T12:56:32.371Z,3.20
2019-05-03T12:57:25.988Z,3.20
2019-05-03T12:58:25.575Z,3.90
2019-05-03T12:59:26.679Z,3.30
2019-05-03T13:00:25.167Z,3.70
2019-05-03T13:01:29.329Z,3.10
2019-05-03T13:02:25.874Z,3.30
2019-05-03T13:03:24.852Z,3.20
2019-05-03T13:04:24.999Z,3.50
2019-05-03T13:05:24.952Z,3.10
2019-05-03T13:06:25.490Z,3.10
2019-05-03T13:07:24.841Z,3.40
2019-05-03T13:08:24.778Z,3.10
2019-05-03T13:09:25.204Z,3.30
2019-05-03T13:10:26.617Z,3.00
2019-05-03T13:11:25.220Z,3.30
2019-05-03T13:12:25.354Z,3.20
2019-05-03T13:13:25.037Z,3.50
2019-05-03T13:14:24.982Z,3.90
2019-05-03T13:15:24.692Z,4.20
2019-05-03T13:16:24.767Z,3.90
2019-05-03T13:19:26.700Z,4.10
2019-05-03T13:20:25.148Z,4.40
2019-05-03T13:21:25.235Z,4.60
2019-05-03T13:22:25.360Z,4.10
2019-05-03T13:23:25.397Z,4.30
2019-05-03T13:24:25.976Z,3.10
2019-05-03T13:25:25.852Z,3.10
2019-05-03T13:26:25.427Z,3.50
2019-05-03T13:27:25.296Z,3.50
2019-05-03T13:28:25.464Z,3.60
2019-05-03T13:29:25.628Z,3.40
2019-05-03T13:30:25.088Z,3.90
2019-05-03T13:31:25.099Z,3.90
2019-05-03T13:32:24.706Z,3.90
2019-05-03T13:33:24.610Z,3.60
2019-05-03T13:34:24.862Z,3.70
2019-05-03T13:35:25.649Z,3.60
2019-05-03T13:36:25.310Z,3.30
2019-05-03T13:37:25.367Z,3.60
2019-05-03T13:38:25.253Z,3.40
2019-05-03T13:39:26.467Z,3.70
2019-05-03T13:40:25.022Z,3.70
2019-05-03T13:41:25.023Z,3.70
2019-05-03T13:42:24.510Z,3.80
2019-05-03T13:43:24.498Z,3.90
2019-05-03T13:44:24.758Z,3.90
2019-05-03T13:45:24.801Z,3.90
2019-05-03T13:46:24.725Z,3.50
2019-05-03T13:47:24.445Z,3.60
2019-05-03T13:48:26.304Z,3.90
2019-05-03T13:49:26.503Z,3.60
2019-05-03T13:50:24.646Z,3.60
2019-05-03T13:51:25.294Z,3.70
2019-05-03T13:52:25.233Z,3.30
2019-05-03T13:53:25.416Z,3.70
2019-05-03T13:54:25.519Z,3.70
2019-05-03T13:55:24.653Z,3.60
2019-05-03T13:56:24.739Z,3.90
2019-05-03T13:57:24.669Z,3.80
2019-05-03T13:58:26.178Z,3.60
2019-05-03T13:59:24.688Z,3.50
2019-05-03T14:00:24.734Z,5.70
2019-05-03T14:01:25.324Z,4.20
2019-05-03T14:02:25.187Z,3.70
2019-05-03T14:03:25.152Z,3.90
2019-05-03T14:04:24.248Z,3.80
2019-05-03T14:05:24.581Z,4.10
2019-05-03T14:06:24.676Z,3.60
2019-05-03T14:07:24.227Z,3.60
2019-05-03T14:08:25.408Z,3.90
2019-05-03T14:09:25.155Z,3.70
2019-05-03T14:10:25.115Z,3.90
2019-05-03T14:11:25.372Z,3.70
2019-05-03T14:12:24.470Z,3.90
2019-05-03T14:13:24.219Z,4.10
2019-05-03T14:14:25.838Z,4.10
2019-05-03T14:15:25.522Z,4.10
2019-05-03T14:16:24.202Z,4.50
2019-05-03T14:17:25.288Z,4.20
2019-05-03T14:18:25.634Z,4.20
2019-05-03T14:19:25.282Z,4.90
2019-05-03T14:20:26.091Z,4.60
2019-05-03T14:21:24.453Z,4.60
2019-05-03T14:22:24.850Z,4.50
2019-05-03T14:23:25.319Z,5.00
2019-05-03T14:24:24.591Z,4.10
2019-05-03T14:25:24.674Z,4.50
2019-05-03T14:26:24.700Z,4.20
2019-05-03T14:27:25.387Z,5.00
2019-05-03T14:28:27.677Z,4.90
2019-05-03T14:29:25.256Z,4.50
2019-05-03T14:30:25.289Z,4.60
2019-05-03T14:31:25.195Z,4.50
2019-05-03T14:32:26.699Z,4.70
2019-05-03T14:33:24.826Z,5.10
2019-05-03T14:34:25.753Z,4.10
2019-05-03T14:35:25.087Z,4.40
2019-05-03T14:36:25.113Z,4.30
2019-05-03T14:37:23.958Z,4.40
2019-05-03T14:38:25.479Z,4.30
2019-05-03T14:39:25.353Z,4.40
2019-05-03T14:40:25.109Z,4.30
2019-05-03T14:41:25.473Z,4.00
2019-05-03T14:42:25.176Z,4.20
2019-05-03T14:43:24.903Z,4.00
2019-05-03T14:44:25.211Z,4.20
2019-05-03T14:45:25.583Z,4.30
2019-05-03T14:46:32.685Z,3.90
2019-05-03T14:47:25.203Z,4.00
2019-05-03T14:48:24.837Z,4.50
2019-05-03T14:49:25.448Z,4.30
2019-05-03T14:50:25.480Z,4.30
2019-05-03T14:51:30.773Z,3.80
2019-05-03T14:52:25.249Z,4.20
2019-05-03T14:53:25.426Z,3.90
2019-05-03T14:54:24.913Z,3.80
2019-05-03T14:55:25.163Z,4.10
2019-05-03T14:56:25.415Z,4.10
2019-05-03T14:57:25.864Z,3.90
2019-05-03T14:58:25.852Z,4.10
2019-05-03T14:59:23.710Z,4.60
2019-05-03T15:00:25.117Z,4.50
2019-05-03T15:01:24.800Z,4.60
2019-05-03T15:02:24.537Z,4.70
2019-05-03T15:03:24.592Z,4.70
2019-05-03T15:04:25.523Z,6.70
2019-05-03T15:05:25.304Z,4.80
2019-05-03T15:06:24.917Z,6.80
2019-05-03T15:07:25.475Z,4.90
2019-05-03T15:08:25.494Z,4.30
2019-05-03T15:09:25.145Z,4.00
2019-05-03T15:10:23.580Z,4.60
2019-05-03T15:11:23.698Z,4.40
2019-05-03T15:12:25.223Z,3.90
2019-05-03T15:13:25.159Z,4.20
2019-05-03T15:14:25.153Z,3.80
2019-05-03T15:15:25.071Z,4.10
2019-05-03T15:16:25.045Z,4.00
2019-05-03T15:17:24.692Z,3.90
2019-05-03T15:18:25.363Z,3.90
2019-05-03T15:19:31.007Z,4.40
2019-05-03T15:20:25.281Z,4.40
2019-05-03T15:21:25.120Z,4.20
2019-05-03T15:22:25.193Z,4.50
2019-05-03T15:23:25.211Z,4.10
2019-05-03T15:24:25.187Z,4.00
2019-05-03T15:25:25.125Z,3.90
2019-05-03T15:26:24.882Z,3.90
2019-05-03T15:27:24.819Z,4.20
2019-05-03T15:28:25.079Z,4.10
2019-05-03T15:29:24.659Z,4.10
2019-05-03T15:30:25.462Z,4.30
2019-05-03T15:31:24.572Z,4.60
2019-05-03T15:32:23.296Z,3.80
2019-05-03T15:33:23.293Z,3.80
2019-05-03T15:34:23.308Z,3.90
2019-05-03T15:35:23.282Z,3.70
2019-05-03T15:36:23.298Z,3.80
2019-05-03T15:37:25.013Z,3.90
2019-05-03T15:38:23.269Z,4.10
2019-05-03T15:39:23.216Z,3.90
2019-05-03T15:40:24.994Z,3.80
2019-05-03T15:41:25.069Z,3.80
2019-05-03T15:42:23.319Z,4.20
2019-05-03T15:43:28.011Z,5.10
2019-05-03T15:44:25.265Z,3.90
2019-05-03T15:45:25.107Z,4.40
2019-05-03T15:46:25.053Z,4.20
2019-05-03T15:47:25.282Z,4.10
2019-05-03T15:48:24.574Z,4.40
2019-05-03T15:49:25.549Z,4.10
2019-05-03T15:50:25.090Z,4.50
2019-05-03T15:51:24.544Z,4.40
2019-05-03T15:52:24.673Z,4.50
2019-05-03T15:53:24.700Z,4.40
2019-05-03T15:54:24.616Z,4.50
2019-05-03T15:55:24.605Z,4.20
2019-05-03T15:56:25.081Z,4.40
2019-05-03T15:57:25.096Z,4.80
2019-05-03T15:58:24.692Z,4.50
2019-05-03T15:59:24.390Z,4.70
2019-05-03T16:00:24.498Z,4.40
2019-05-03T16:01:24.834Z,4.20
2019-05-03T16:02:24.666Z,4.40
2019-05-03T16:03:25.055Z,4.70
2019-05-03T16:04:24.940Z,4.40
2019-05-03T16:05:24.935Z,4.60
2019-05-03T16:06:24.721Z,4.30
2019-05-03T16:07:24.888Z,5.00
2019-05-03T16:08:24.732Z,5.00
2019-05-03T16:09:24.608Z,4.80
2019-05-03T16:10:24.750Z,5.10
2019-05-03T16:11:22.883Z,4.70
2019-05-03T16:12:22.873Z,5.00
2019-05-03T16:13:25.015Z,4.80
2019-05-03T16:14:24.311Z,4.80
2019-05-03T16:15:24.612Z,4.70
2019-05-03T16:16:24.766Z,4.50
2019-05-03T16:17:24.476Z,4.50
2019-05-03T16:18:24.598Z,4.20
2019-05-03T16:19:24.263Z,5.00
2019-05-03T16:20:22.776Z,4.60
2019-05-03T16:21:22.774Z,4.40
2019-05-03T16:22:22.757Z,4.60
2019-05-03T16:23:24.779Z,5.00
2019-05-03T16:24:31.533Z,4.70
2019-05-03T16:25:24.911Z,4.90
2019-05-03T16:26:24.718Z,4.80
2019-05-03T16:27:24.703Z,5.10
2019-05-03T16:28:24.716Z,4.60
2019-05-03T16:29:24.356Z,4.90
2019-05-03T16:30:22.669Z,5.10
2019-05-03T16:31:24.849Z,4.90
2019-05-03T16:32:22.663Z,5.80
2019-05-03T16:33:27.502Z,5.10
2019-05-03T16:34:23.668Z,5.50
2019-05-03T16:35:22.670Z,6.30
2019-05-03T16:36:22.662Z,11.50
2019-05-03T16:37:22.594Z,6.10
2019-05-03T16:38:24.674Z,5.90
2019-05-03T16:39:24.417Z,5.80
2019-05-03T16:40:22.590Z,5.60
2019-05-03T16:41:24.688Z,6.00
2019-05-03T16:42:24.480Z,6.10
2019-05-03T16:43:22.686Z,6.00
2019-05-03T16:44:24.304Z,5.70
2019-05-03T16:45:22.521Z,6.10
2019-05-03T16:46:22.606Z,5.80
2019-05-03T16:47:22.535Z,6.40
2019-05-03T16:48:24.532Z,6.00
2019-05-03T16:49:24.570Z,5.80
2019-05-03T16:50:22.454Z,6.60
2019-05-03T16:51:22.442Z,6.00
2019-05-03T16:52:22.469Z,6.00
2019-05-03T16:53:22.417Z,5.90
2019-05-03T16:54:22.410Z,6.30
2019-05-03T16:55:22.395Z,6.20
2019-05-03T16:56:24.356Z,5.60
2019-05-03T16:57:24.288Z,6.00
2019-05-03T16:58:24.618Z,6.50
2019-05-03T16:59:24.593Z,6.90
2019-05-03T17:00:24.861Z,6.50
2019-05-03T17:01:24.379Z,6.30
2019-05-03T17:02:24.509Z,6.40
2019-05-03T17:03:22.321Z,6.00
2019-05-03T17:04:22.362Z,6.50
2019-05-03T17:05:22.300Z,6.60
2019-05-03T17:06:22.280Z,5.60
2019-05-03T17:07:22.310Z,6.70
2019-05-03T17:08:22.264Z,6.70
2019-05-03T17:09:22.273Z,7.10
2019-05-03T17:10:22.242Z,7.10
2019-05-03T17:11:24.168Z,7.00
2019-05-03T17:12:22.252Z,7.60
2019-05-03T17:13:22.218Z,7.50
2019-05-03T17:14:22.249Z,7.70
2019-05-03T17:15:22.189Z,7.30
2019-05-03T17:16:22.181Z,7.40
2019-05-03T17:17:22.191Z,7.90
2019-05-03T17:18:22.160Z,7.80
2019-05-03T17:19:22.143Z,7.30
2019-05-03T17:20:22.216Z,7.90
2019-05-03T17:21:22.122Z,7.60
2019-05-03T17:22:22.129Z,7.00
2019-05-03T17:23:22.207Z,7.40
2019-05-03T17:24:22.089Z,8.30
2019-05-03T17:25:22.088Z,7.70
2019-05-03T17:26:24.917Z,8.60
2019-05-03T17:27:22.064Z,7.00
2019-05-03T17:28:22.168Z,7.10
2019-05-03T17:29:22.037Z,7.40
2019-05-03T17:30:22.062Z,7.20
2019-05-03T17:31:22.027Z,7.30
2019-05-03T17:32:24.166Z,6.90
2019-05-03T17:33:22.039Z,7.40
2019-05-03T17:34:22.046Z,7.30
2019-05-03T17:35:21.989Z,7.40
2019-05-03T17:36:21.968Z,7.70
2019-05-03T17:37:23.709Z,7.70
2019-05-03T17:38:21.945Z,6.80
2019-05-03T17:39:21.935Z,7.20
2019-05-03T17:40:21.944Z,6.50
2019-05-03T17:41:21.928Z,7.00
2019-05-03T17:42:21.901Z,6.80
2019-05-03T17:43:21.888Z,6.70
2019-05-03T17:44:21.872Z,6.60
2019-05-03T17:45:21.921Z,6.20
2019-05-03T17:46:22.650Z,6.80
2019-05-03T17:47:21.882Z,7.00
2019-05-03T17:48:21.874Z,6.90
2019-05-03T17:49:21.821Z,6.10
2019-05-03T17:50:21.808Z,6.40
2019-05-03T17:51:21.803Z,6.10
2019-05-03T17:52:21.837Z,6.30
2019-05-03T17:53:21.800Z,6.40
2019-05-03T17:54:21.783Z,6.40
2019-05-03T17:55:21.760Z,6.40
2019-05-03T17:56:21.757Z,6.10
2019-05-03T17:57:25.221Z,6.80
2019-05-03T17:58:21.764Z,6.40
2019-05-03T17:59:21.727Z,6.30
2019-05-03T18:00:21.704Z,6.60
2019-05-03T18:01:21.689Z,6.00
2019-05-03T18:02:21.715Z,6.70
2019-05-03T18:03:21.670Z,6.30
2019-05-03T18:04:21.701Z,6.60
2019-05-03T18:05:21.688Z,6.80
2019-05-03T18:06:21.640Z,6.70
2019-05-03T18:07:21.628Z,6.70
2019-05-03T18:08:21.618Z,6.70
2019-05-03T18:09:21.610Z,7.10
2019-05-03T18:10:21.635Z,7.00
2019-05-03T18:11:21.602Z,7.10
2019-05-03T18:12:21.572Z,7.20
2019-05-03T18:13:21.570Z,7.00
2019-05-03T18:14:21.557Z,7.10
2019-05-03T18:15:21.581Z,7.90
2019-05-03T18:16:21.537Z,7.20
2019-05-03T18:17:21.557Z,6.80
2019-05-03T18:18:21.533Z,7.20
2019-05-03T18:19:21.545Z,7.40
2019-05-03T18:20:21.487Z,7.20
2019-05-03T18:21:21.479Z,7.50
2019-05-03T18:22:21.466Z,7.50
2019-05-03T18:23:21.494Z,8.10
2019-05-03T18:24:21.444Z,7.70
2019-05-03T18:25:21.437Z,8.10
2019-05-03T18:26:21.420Z,7.80
2019-05-03T18:27:21.460Z,7.90
2019-05-03T18:28:21.428Z,8.10
2019-05-03T18:29:21.391Z,7.90
